sensor_id;sensor_type;location;lat;lon;timestamp;P1;durP1;ratioP1;P2;durP2;ratioP2
84033;SDS011;74115;55.806;37.754;2023-11-19T00:00:33;5.70;;;1.90;;
84033;SDS011;74115;55.806;37.754;2023-11-19T00:02:58;5.40;;;3.15;;
84033;SDS011;74115;55.806;37.754;2023-11-19T00:05:24;4.97;;;3.63;;
84033;SDS011;74115;55.806;37.754;2023-11-19T00:07:50;9.13;;;3.22;;
84033;SDS011;74115;55.806;37.754;2023-11-19T00:10:16;5.80;;;3.80;;
84033;SDS011;74115;55.806;37.754;2023-11-19T00:12:45;4.85;;;2.42;;
84033;SDS011;74115;55.806;37.754;2023-11-19T00:15:12;5.43;;;2.55;;
84033;SDS011;74115;55.806;37.754;2023-11-19T00:17:38;11.60;;;2.60;;
84033;SDS011;74115;55.806;37.754;2023-11-19T00:22:39;13.32;;;5.60;;
84033;SDS011;74115;55.806;37.754;2023-11-19T00:25:05;4.20;;;2.67;;
84033;SDS011;74115;55.806;37.754;2023-11-19T00:27:31;6.50;;;2.70;;
84033;SDS011;74115;55.806;37.754;2023-11-19T00:29:57;9.88;;;3.85;;
84033;SDS011;74115;55.806;37.754;2023-11-19T00:32:22;6.18;;;2.95;;
84033;SDS011;74115;55.806;37.754;2023-11-19T00:34:48;7.43;;;3.13;;
84033;SDS011;74115;55.806;37.754;2023-11-19T00:37:14;16.50;;;3.85;;
84033;SDS011;74115;55.806;37.754;2023-11-19T00:39:40;8.75;;;3.17;;
84033;SDS011;74115;55.806;37.754;2023-11-19T00:42:06;5.85;;;2.50;;
84033;SDS011;74115;55.806;37.754;2023-11-19T00:44:32;9.23;;;4.30;;
84033;SDS011;74115;55.806;37.754;2023-11-19T00:46:58;10.20;;;3.55;;
84033;SDS011;74115;55.806;37.754;2023-11-19T00:49:25;10.38;;;3.97;;
84033;SDS011;74115;55.806;37.754;2023-11-19T00:51:50;10.95;;;4.85;;
84033;SDS011;74115;55.806;37.754;2023-11-19T00:54:16;6.97;;;3.88;;
84033;SDS011;74115;55.806;37.754;2023-11-19T00:56:41;6.90;;;4.20;;
84033;SDS011;74115;55.806;37.754;2023-11-19T00:59:07;10.18;;;3.92;;
84033;SDS011;74115;55.806;37.754;2023-11-19T01:01:33;6.63;;;4.18;;
84033;SDS011;74115;55.806;37.754;2023-11-19T01:03:59;8.32;;;5.68;;
84033;SDS011;74115;55.806;37.754;2023-11-19T01:06:28;8.98;;;5.72;;
84033;SDS011;74115;55.806;37.754;2023-11-19T01:08:57;9.82;;;3.75;;
84033;SDS011;74115;55.806;37.754;2023-11-19T01:11:23;9.52;;;4.53;;
84033;SDS011;74115;55.806;37.754;2023-11-19T01:13:49;15.32;;;6.13;;
84033;SDS011;74115;55.806;37.754;2023-11-19T01:16:15;9.88;;;4.63;;
84033;SDS011;74115;55.806;37.754;2023-11-19T01:18:41;15.93;;;6.57;;
84033;SDS011;74115;55.806;37.754;2023-11-19T01:21:07;9.02;;;4.13;;
84033;SDS011;74115;55.806;37.754;2023-11-19T01:23:33;13.35;;;4.18;;
84033;SDS011;74115;55.806;37.754;2023-11-19T01:26:00;12.65;;;3.97;;
84033;SDS011;74115;55.806;37.754;2023-11-19T01:28:25;5.78;;;3.17;;
84033;SDS011;74115;55.806;37.754;2023-11-19T01:30:51;10.02;;;3.63;;
84033;SDS011;74115;55.806;37.754;2023-11-19T01:33:17;13.50;;;4.32;;
84033;SDS011;74115;55.806;37.754;2023-11-19T01:35:43;8.60;;;4.13;;
84033;SDS011;74115;55.806;37.754;2023-11-19T01:38:08;12.05;;;4.07;;
84033;SDS011;74115;55.806;37.754;2023-11-19T01:40:34;7.57;;;4.22;;
84033;SDS011;74115;55.806;37.754;2023-11-19T01:43:01;7.63;;;4.63;;
84033;SDS011;74115;55.806;37.754;2023-11-19T01:45:28;11.07;;;5.97;;
84033;SDS011;74115;55.806;37.754;2023-11-19T01:47:58;20.60;;;4.75;;
84033;SDS011;74115;55.806;37.754;2023-11-19T01:50:25;7.63;;;3.50;;
84033;SDS011;74115;55.806;37.754;2023-11-19T01:52:52;9.10;;;3.45;;
84033;SDS011;74115;55.806;37.754;2023-11-19T01:55:18;9.45;;;3.80;;
84033;SDS011;74115;55.806;37.754;2023-11-19T01:57:47;11.98;;;5.30;;
84033;SDS011;74115;55.806;37.754;2023-11-19T02:00:14;13.45;;;4.28;;
84033;SDS011;74115;55.806;37.754;2023-11-19T02:02:41;9.48;;;4.18;;
84033;SDS011;74115;55.806;37.754;2023-11-19T02:05:08;13.82;;;4.00;;
84033;SDS011;74115;55.806;37.754;2023-11-19T02:07:35;9.77;;;4.32;;
84033;SDS011;74115;55.806;37.754;2023-11-19T02:10:01;7.30;;;4.07;;
84033;SDS011;74115;55.806;37.754;2023-11-19T02:12:27;15.23;;;5.03;;
84033;SDS011;74115;55.806;37.754;2023-11-19T02:14:59;8.43;;;3.95;;
84033;SDS011;74115;55.806;37.754;2023-11-19T02:17:31;12.02;;;4.85;;
84033;SDS011;74115;55.806;37.754;2023-11-19T02:19:57;18.13;;;3.65;;
84033;SDS011;74115;55.806;37.754;2023-11-19T02:22:23;10.68;;;4.18;;
84033;SDS011;74115;55.806;37.754;2023-11-19T02:24:50;9.68;;;2.95;;
84033;SDS011;74115;55.806;37.754;2023-11-19T02:27:59;8.75;;;3.67;;
84033;SDS011;74115;55.806;37.754;2023-11-19T02:30:21;13.45;;;4.05;;
84033;SDS011;74115;55.806;37.754;2023-11-19T02:32:54;9.40;;;4.40;;
84033;SDS011;74115;55.806;37.754;2023-11-19T02:35:23;8.57;;;4.03;;
84033;SDS011;74115;55.806;37.754;2023-11-19T02:37:49;9.95;;;4.72;;
84033;SDS011;74115;55.806;37.754;2023-11-19T02:40:14;9.48;;;4.35;;
84033;SDS011;74115;55.806;37.754;2023-11-19T02:42:40;11.32;;;4.65;;
84033;SDS011;74115;55.806;37.754;2023-11-19T02:45:06;12.55;;;5.03;;
84033;SDS011;74115;55.806;37.754;2023-11-19T02:47:33;9.35;;;5.55;;
84033;SDS011;74115;55.806;37.754;2023-11-19T02:49:59;7.95;;;4.60;;
84033;SDS011;74115;55.806;37.754;2023-11-19T02:52:25;12.52;;;5.03;;
84033;SDS011;74115;55.806;37.754;2023-11-19T02:54:50;11.50;;;4.18;;
84033;SDS011;74115;55.806;37.754;2023-11-19T02:57:17;12.60;;;4.60;;
84033;SDS011;74115;55.806;37.754;2023-11-19T02:59:44;7.07;;;4.05;;
84033;SDS011;74115;55.806;37.754;2023-11-19T03:02:10;9.05;;;3.55;;
84033;SDS011;74115;55.806;37.754;2023-11-19T03:04:39;7.63;;;3.97;;
84033;SDS011;74115;55.806;37.754;2023-11-19T03:07:05;8.95;;;4.20;;
84033;SDS011;74115;55.806;37.754;2023-11-19T03:09:32;11.40;;;4.25;;
84033;SDS011;74115;55.806;37.754;2023-11-19T03:11:59;8.13;;;4.50;;
84033;SDS011;74115;55.806;37.754;2023-11-19T03:14:24;10.10;;;4.63;;
84033;SDS011;74115;55.806;37.754;2023-11-19T03:16:50;9.38;;;3.22;;
84033;SDS011;74115;55.806;37.754;2023-11-19T03:19:16;6.18;;;3.08;;
84033;SDS011;74115;55.806;37.754;2023-11-19T03:21:42;9.32;;;3.40;;
84033;SDS011;74115;55.806;37.754;2023-11-19T03:24:07;20.55;;;6.68;;
84033;SDS011;74115;55.806;37.754;2023-11-19T03:26:33;9.10;;;3.70;;
84033;SDS011;74115;55.806;37.754;2023-11-19T03:28:59;12.77;;;3.67;;
84033;SDS011;74115;55.806;37.754;2023-11-19T03:31:25;16.90;;;6.40;;
84033;SDS011;74115;55.806;37.754;2023-11-19T03:33:51;11.43;;;5.70;;
84033;SDS011;74115;55.806;37.754;2023-11-19T03:36:17;8.80;;;4.97;;
84033;SDS011;74115;55.806;37.754;2023-11-19T03:38:42;10.15;;;4.38;;
84033;SDS011;74115;55.806;37.754;2023-11-19T03:41:12;12.88;;;4.43;;
84033;SDS011;74115;55.806;37.754;2023-11-19T03:43:38;8.85;;;4.00;;
84033;SDS011;74115;55.806;37.754;2023-11-19T03:46:04;10.90;;;4.25;;
84033;SDS011;74115;55.806;37.754;2023-11-19T03:48:30;7.80;;;4.60;;
84033;SDS011;74115;55.806;37.754;2023-11-19T03:50:56;12.20;;;4.85;;
84033;SDS011;74115;55.806;37.754;2023-11-19T03:53:22;7.20;;;4.38;;
84033;SDS011;74115;55.806;37.754;2023-11-19T03:55:49;12.23;;;5.93;;
84033;SDS011;74115;55.806;37.754;2023-11-19T03:58:15;8.52;;;5.40;;
84033;SDS011;74115;55.806;37.754;2023-11-19T04:00:40;11.00;;;5.55;;
84033;SDS011;74115;55.806;37.754;2023-11-19T04:03:06;10.75;;;6.00;;
84033;SDS011;74115;55.806;37.754;2023-11-19T04:05:32;10.93;;;4.63;;
84033;SDS011;74115;55.806;37.754;2023-11-19T04:07:57;9.55;;;4.85;;
84033;SDS011;74115;55.806;37.754;2023-11-19T04:10:23;11.23;;;5.07;;
84033;SDS011;74115;55.806;37.754;2023-11-19T04:12:49;11.27;;;6.35;;
84033;SDS011;74115;55.806;37.754;2023-11-19T04:15:14;11.85;;;5.28;;
84033;SDS011;74115;55.806;37.754;2023-11-19T04:17:40;16.33;;;4.05;;
84033;SDS011;74115;55.806;37.754;2023-11-19T04:20:06;12.20;;;5.88;;
84033;SDS011;74115;55.806;37.754;2023-11-19T04:22:36;9.82;;;5.22;;
84033;SDS011;74115;55.806;37.754;2023-11-19T04:25:01;12.35;;;6.13;;
84033;SDS011;74115;55.806;37.754;2023-11-19T04:27:28;11.95;;;5.68;;
84033;SDS011;74115;55.806;37.754;2023-11-19T04:29:55;11.40;;;5.68;;
84033;SDS011;74115;55.806;37.754;2023-11-19T04:32:20;13.13;;;5.22;;
84033;SDS011;74115;55.806;37.754;2023-11-19T04:34:46;13.00;;;6.07;;
84033;SDS011;74115;55.806;37.754;2023-11-19T04:37:12;19.42;;;7.18;;
84033;SDS011;74115;55.806;37.754;2023-11-19T04:39:37;13.13;;;6.82;;
84033;SDS011;74115;55.806;37.754;2023-11-19T04:42:03;18.67;;;7.82;;
84033;SDS011;74115;55.806;37.754;2023-11-19T04:44:29;16.00;;;9.10;;
84033;SDS011;74115;55.806;37.754;2023-11-19T04:46:55;18.25;;;7.50;;
84033;SDS011;74115;55.806;37.754;2023-11-19T04:49:21;16.17;;;6.28;;
84033;SDS011;74115;55.806;37.754;2023-11-19T04:51:47;19.92;;;8.13;;
84033;SDS011;74115;55.806;37.754;2023-11-19T04:54:13;21.88;;;9.60;;
84033;SDS011;74115;55.806;37.754;2023-11-19T04:56:39;12.77;;;8.55;;
84033;SDS011;74115;55.806;37.754;2023-11-19T04:59:05;20.75;;;8.02;;
84033;SDS011;74115;55.806;37.754;2023-11-19T05:01:34;16.15;;;7.70;;
84033;SDS011;74115;55.806;37.754;2023-11-19T05:04:01;16.92;;;7.70;;
84033;SDS011;74115;55.806;37.754;2023-11-19T05:06:29;13.15;;;7.82;;
84033;SDS011;74115;55.806;37.754;2023-11-19T05:08:56;16.50;;;8.43;;
84033;SDS011;74115;55.806;37.754;2023-11-19T05:11:23;13.65;;;7.22;;
84033;SDS011;74115;55.806;37.754;2023-11-19T05:13:49;16.50;;;6.85;;
84033;SDS011;74115;55.806;37.754;2023-11-19T05:16:15;16.45;;;7.25;;
84033;SDS011;74115;55.806;37.754;2023-11-19T05:18:42;10.13;;;7.05;;
84033;SDS011;74115;55.806;37.754;2023-11-19T05:21:08;14.52;;;6.85;;
84033;SDS011;74115;55.806;37.754;2023-11-19T05:23:34;19.13;;;7.63;;
84033;SDS011;74115;55.806;37.754;2023-11-19T05:26:00;17.30;;;9.43;;
84033;SDS011;74115;55.806;37.754;2023-11-19T05:28:26;15.85;;;7.13;;
84033;SDS011;74115;55.806;37.754;2023-11-19T05:30:52;13.15;;;5.72;;
84033;SDS011;74115;55.806;37.754;2023-11-19T05:33:18;13.13;;;6.88;;
84033;SDS011;74115;55.806;37.754;2023-11-19T05:35:46;7.10;;;4.55;;
84033;SDS011;74115;55.806;37.754;2023-11-19T05:38:15;8.50;;;4.47;;
84033;SDS011;74115;55.806;37.754;2023-11-19T05:40:41;9.35;;;4.88;;
84033;SDS011;74115;55.806;37.754;2023-11-19T05:43:06;14.40;;;8.13;;
84033;SDS011;74115;55.806;37.754;2023-11-19T05:45:32;8.68;;;4.32;;
84033;SDS011;74115;55.806;37.754;2023-11-19T05:47:58;15.75;;;8.45;;
84033;SDS011;74115;55.806;37.754;2023-11-19T05:50:24;6.88;;;4.07;;
84033;SDS011;74115;55.806;37.754;2023-11-19T05:52:49;8.95;;;4.38;;
84033;SDS011;74115;55.806;37.754;2023-11-19T05:55:15;22.92;;;11.02;;
84033;SDS011;74115;55.806;37.754;2023-11-19T05:57:44;14.98;;;5.32;;
84033;SDS011;74115;55.806;37.754;2023-11-19T06:00:10;4.72;;;3.03;;
84033;SDS011;74115;55.806;37.754;2023-11-19T06:02:38;14.07;;;6.18;;
84033;SDS011;74115;55.806;37.754;2023-11-19T06:05:04;13.07;;;7.28;;
84033;SDS011;74115;55.806;37.754;2023-11-19T06:07:31;11.02;;;6.15;;
84033;SDS011;74115;55.806;37.754;2023-11-19T06:09:57;8.05;;;3.78;;
84033;SDS011;74115;55.806;37.754;2023-11-19T06:12:23;12.35;;;6.15;;
84033;SDS011;74115;55.806;37.754;2023-11-19T06:14:49;13.25;;;7.53;;
84033;SDS011;74115;55.806;37.754;2023-11-19T06:17:14;8.90;;;5.82;;
84033;SDS011;74115;55.806;37.754;2023-11-19T06:19:40;13.13;;;7.95;;
84033;SDS011;74115;55.806;37.754;2023-11-19T06:22:06;11.43;;;6.20;;
84033;SDS011;74115;55.806;37.754;2023-11-19T06:24:31;12.90;;;6.40;;
84033;SDS011;74115;55.806;37.754;2023-11-19T06:26:57;16.05;;;7.80;;
84033;SDS011;74115;55.806;37.754;2023-11-19T06:29:26;13.35;;;5.03;;
84033;SDS011;74115;55.806;37.754;2023-11-19T06:31:51;14.73;;;4.15;;
84033;SDS011;74115;55.806;37.754;2023-11-19T06:34:17;6.72;;;3.58;;
84033;SDS011;74115;55.806;37.754;2023-11-19T06:36:43;8.32;;;3.67;;
84033;SDS011;74115;55.806;37.754;2023-11-19T06:39:09;10.90;;;5.75;;
84033;SDS011;74115;55.806;37.754;2023-11-19T06:41:36;17.00;;;9.65;;
84033;SDS011;74115;55.806;37.754;2023-11-19T06:44:03;15.13;;;7.35;;
84033;SDS011;74115;55.806;37.754;2023-11-19T06:46:30;16.67;;;9.70;;
84033;SDS011;74115;55.806;37.754;2023-11-19T06:48:56;16.70;;;8.40;;
84033;SDS011;74115;55.806;37.754;2023-11-19T06:51:22;16.02;;;8.80;;
84033;SDS011;74115;55.806;37.754;2023-11-19T06:53:49;15.30;;;7.40;;
84033;SDS011;74115;55.806;37.754;2023-11-19T06:56:22;19.60;;;9.40;;
84033;SDS011;74115;55.806;37.754;2023-11-19T06:58:56;14.60;;;8.10;;
84033;SDS011;74115;55.806;37.754;2023-11-19T07:01:24;17.15;;;9.93;;
84033;SDS011;74115;55.806;37.754;2023-11-19T07:03:50;32.13;;;10.20;;
84033;SDS011;74115;55.806;37.754;2023-11-19T07:06:16;16.25;;;9.00;;
84033;SDS011;74115;55.806;37.754;2023-11-19T07:08:42;15.70;;;8.23;;
84033;SDS011;74115;55.806;37.754;2023-11-19T07:11:11;16.45;;;8.13;;
84033;SDS011;74115;55.806;37.754;2023-11-19T07:13:39;14.35;;;8.23;;
84033;SDS011;74115;55.806;37.754;2023-11-19T07:16:06;20.48;;;9.27;;
84033;SDS011;74115;55.806;37.754;2023-11-19T07:18:35;17.13;;;6.38;;
84033;SDS011;74115;55.806;37.754;2023-11-19T07:21:01;15.32;;;6.18;;
84033;SDS011;74115;55.806;37.754;2023-11-19T07:23:29;16.23;;;7.90;;
84033;SDS011;74115;55.806;37.754;2023-11-19T07:25:54;10.20;;;5.90;;
84033;SDS011;74115;55.806;37.754;2023-11-19T07:28:20;12.10;;;7.78;;
84033;SDS011;74115;55.806;37.754;2023-11-19T07:30:46;13.00;;;5.10;;
84033;SDS011;74115;55.806;37.754;2023-11-19T07:33:11;13.93;;;8.68;;
84033;SDS011;74115;55.806;37.754;2023-11-19T07:35:38;14.30;;;6.82;;
84033;SDS011;74115;55.806;37.754;2023-11-19T07:38:06;16.60;;;6.38;;
84033;SDS011;74115;55.806;37.754;2023-11-19T07:40:32;10.18;;;4.93;;
84033;SDS011;74115;55.806;37.754;2023-11-19T07:42:57;13.52;;;7.85;;
84033;SDS011;74115;55.806;37.754;2023-11-19T07:45:23;15.63;;;6.35;;
84033;SDS011;74115;55.806;37.754;2023-11-19T07:47:49;13.32;;;6.55;;
84033;SDS011;74115;55.806;37.754;2023-11-19T07:50:16;10.50;;;6.35;;
84033;SDS011;74115;55.806;37.754;2023-11-19T07:52:44;13.77;;;6.85;;
84033;SDS011;74115;55.806;37.754;2023-11-19T07:55:10;7.47;;;4.18;;
84033;SDS011;74115;55.806;37.754;2023-11-19T07:57:35;12.38;;;5.25;;
84033;SDS011;74115;55.806;37.754;2023-11-19T08:00:02;8.40;;;4.30;;
84033;SDS011;74115;55.806;37.754;2023-11-19T08:02:29;12.15;;;7.25;;
84033;SDS011;74115;55.806;37.754;2023-11-19T08:04:54;13.05;;;6.07;;
84033;SDS011;74115;55.806;37.754;2023-11-19T08:07:20;18.80;;;7.75;;
84033;SDS011;74115;55.806;37.754;2023-11-19T08:09:47;11.60;;;5.50;;
84033;SDS011;74115;55.806;37.754;2023-11-19T08:12:13;10.80;;;5.45;;
84033;SDS011;74115;55.806;37.754;2023-11-19T08:14:42;8.38;;;4.28;;
84033;SDS011;74115;55.806;37.754;2023-11-19T08:17:09;10.00;;;4.97;;
84033;SDS011;74115;55.806;37.754;2023-11-19T08:19:35;9.23;;;5.25;;
84033;SDS011;74115;55.806;37.754;2023-11-19T08:22:00;6.45;;;3.65;;
84033;SDS011;74115;55.806;37.754;2023-11-19T08:24:26;6.43;;;3.72;;
84033;SDS011;74115;55.806;37.754;2023-11-19T08:26:51;6.05;;;3.38;;
84033;SDS011;74115;55.806;37.754;2023-11-19T08:29:17;9.63;;;5.38;;
84033;SDS011;74115;55.806;37.754;2023-11-19T08:31:43;18.20;;;6.55;;
84033;SDS011;74115;55.806;37.754;2023-11-19T08:34:08;5.50;;;3.35;;
84033;SDS011;74115;55.806;37.754;2023-11-19T08:36:34;8.45;;;5.03;;
84033;SDS011;74115;55.806;37.754;2023-11-19T08:39:00;7.78;;;3.85;;
84033;SDS011;74115;55.806;37.754;2023-11-19T08:41:26;9.68;;;3.95;;
84033;SDS011;74115;55.806;37.754;2023-11-19T08:43:52;5.57;;;3.10;;
84033;SDS011;74115;55.806;37.754;2023-11-19T08:46:18;4.85;;;3.30;;
84033;SDS011;74115;55.806;37.754;2023-11-19T08:48:44;9.18;;;3.50;;
84033;SDS011;74115;55.806;37.754;2023-11-19T08:51:09;9.85;;;4.63;;
84033;SDS011;74115;55.806;37.754;2023-11-19T08:53:35;9.55;;;5.38;;
84033;SDS011;74115;55.806;37.754;2023-11-19T08:56:01;5.55;;;1.90;;
84033;SDS011;74115;55.806;37.754;2023-11-19T08:58:28;3.08;;;2.33;;
84033;SDS011;74115;55.806;37.754;2023-11-19T09:00:54;9.15;;;4.35;;
84033;SDS011;74115;55.806;37.754;2023-11-19T09:03:20;9.43;;;5.78;;
84033;SDS011;74115;55.806;37.754;2023-11-19T09:05:46;10.52;;;6.50;;
84033;SDS011;74115;55.806;37.754;2023-11-19T09:08:11;10.85;;;4.65;;
84033;SDS011;74115;55.806;37.754;2023-11-19T09:10:37;10.68;;;5.95;;
84033;SDS011;74115;55.806;37.754;2023-11-19T09:13:03;8.48;;;4.88;;
84033;SDS011;74115;55.806;37.754;2023-11-19T09:15:29;5.60;;;4.35;;
84033;SDS011;74115;55.806;37.754;2023-11-19T09:17:55;9.10;;;3.92;;
84033;SDS011;74115;55.806;37.754;2023-11-19T09:20:21;7.80;;;3.72;;
84033;SDS011;74115;55.806;37.754;2023-11-19T09:22:47;4.18;;;2.92;;
84033;SDS011;74115;55.806;37.754;2023-11-19T09:25:13;8.60;;;3.53;;
84033;SDS011;74115;55.806;37.754;2023-11-19T09:27:43;8.82;;;4.38;;
84033;SDS011;74115;55.806;37.754;2023-11-19T09:30:09;10.02;;;4.00;;
84033;SDS011;74115;55.806;37.754;2023-11-19T09:32:35;8.27;;;4.43;;
84033;SDS011;74115;55.806;37.754;2023-11-19T09:35:03;7.50;;;4.47;;
84033;SDS011;74115;55.806;37.754;2023-11-19T09:37:29;10.35;;;6.80;;
84033;SDS011;74115;55.806;37.754;2023-11-19T09:39:55;7.70;;;4.18;;
84033;SDS011;74115;55.806;37.754;2023-11-19T09:42:20;5.07;;;2.45;;
84033;SDS011;74115;55.806;37.754;2023-11-19T09:44:46;7.57;;;4.80;;
84033;SDS011;74115;55.806;37.754;2023-11-19T09:47:12;15.48;;;4.65;;
84033;SDS011;74115;55.806;37.754;2023-11-19T09:49:39;9.20;;;4.68;;
84033;SDS011;74115;55.806;37.754;2023-11-19T09:52:07;9.25;;;3.85;;
84033;SDS011;74115;55.806;37.754;2023-11-19T09:59:28;8.50;;;5.55;;
84033;SDS011;74115;55.806;37.754;2023-11-19T10:01:54;6.40;;;4.30;;
84033;SDS011;74115;55.806;37.754;2023-11-19T10:04:21;6.63;;;3.88;;
84033;SDS011;74115;55.806;37.754;2023-11-19T10:06:51;5.38;;;3.50;;
84033;SDS011;74115;55.806;37.754;2023-11-19T10:09:17;6.30;;;3.78;;
84033;SDS011;74115;55.806;37.754;2023-11-19T10:11:44;13.57;;;4.47;;
84033;SDS011;74115;55.806;37.754;2023-11-19T10:14:09;6.05;;;3.30;;
84033;SDS011;74115;55.806;37.754;2023-11-19T10:16:35;18.42;;;4.07;;
84033;SDS011;74115;55.806;37.754;2023-11-19T10:19:01;10.88;;;4.32;;
84033;SDS011;74115;55.806;37.754;2023-11-19T10:21:27;9.32;;;4.20;;
84033;SDS011;74115;55.806;37.754;2023-11-19T10:26:19;6.45;;;3.25;;
84033;SDS011;74115;55.806;37.754;2023-11-19T10:28:46;8.52;;;4.82;;
84033;SDS011;74115;55.806;37.754;2023-11-19T10:31:16;8.93;;;3.95;;
84033;SDS011;74115;55.806;37.754;2023-11-19T10:33:44;5.20;;;3.33;;
84033;SDS011;74115;55.806;37.754;2023-11-19T10:36:14;8.90;;;4.10;;
84033;SDS011;74115;55.806;37.754;2023-11-19T10:38:40;7.68;;;4.15;;
84033;SDS011;74115;55.806;37.754;2023-11-19T10:41:06;6.32;;;4.03;;
84033;SDS011;74115;55.806;37.754;2023-11-19T10:43:42;5.43;;;4.18;;
84033;SDS011;74115;55.806;37.754;2023-11-19T10:46:10;7.38;;;4.80;;
84033;SDS011;74115;55.806;37.754;2023-11-19T10:48:36;5.63;;;2.63;;
84033;SDS011;74115;55.806;37.754;2023-11-19T10:51:02;9.38;;;3.45;;
84033;SDS011;74115;55.806;37.754;2023-11-19T10:53:33;10.50;;;4.88;;
84033;SDS011;74115;55.806;37.754;2023-11-19T10:56:02;7.45;;;3.10;;
84033;SDS011;74115;55.806;37.754;2023-11-19T10:58:35;4.25;;;3.35;;
84033;SDS011;74115;55.806;37.754;2023-11-19T11:01:13;6.68;;;3.72;;
84033;SDS011;74115;55.806;37.754;2023-11-19T11:03:40;4.13;;;2.63;;
84033;SDS011;74115;55.806;37.754;2023-11-19T11:06:06;10.50;;;3.10;;
84033;SDS011;74115;55.806;37.754;2023-11-19T11:08:32;9.07;;;3.08;;
84033;SDS011;74115;55.806;37.754;2023-11-19T11:11:02;5.95;;;2.97;;
84033;SDS011;74115;55.806;37.754;2023-11-19T11:13:29;7.18;;;4.55;;
84033;SDS011;74115;55.806;37.754;2023-11-19T11:15:56;6.65;;;3.70;;
84033;SDS011;74115;55.806;37.754;2023-11-19T11:18:26;11.45;;;5.13;;
84033;SDS011;74115;55.806;37.754;2023-11-19T11:20:53;4.63;;;3.00;;
84033;SDS011;74115;55.806;37.754;2023-11-19T11:32:27;13.60;;;5.38;;
84033;SDS011;74115;55.806;37.754;2023-11-19T11:38:11;6.57;;;3.28;;
84033;SDS011;74115;55.806;37.754;2023-11-19T11:40:38;10.60;;;4.38;;
84033;SDS011;74115;55.806;37.754;2023-11-19T11:43:03;7.22;;;4.72;;
84033;SDS011;74115;55.806;37.754;2023-11-19T11:45:36;7.20;;;3.33;;
84033;SDS011;74115;55.806;37.754;2023-11-19T11:48:11;8.27;;;3.88;;
84033;SDS011;74115;55.806;37.754;2023-11-19T11:50:50;11.15;;;3.83;;
84033;SDS011;74115;55.806;37.754;2023-11-19T11:53:18;7.57;;;3.42;;
84033;SDS011;74115;55.806;37.754;2023-11-19T11:55:53;5.68;;;2.15;;
84033;SDS011;74115;55.806;37.754;2023-11-19T11:58:28;7.60;;;4.22;;
84033;SDS011;74115;55.806;37.754;2023-11-19T12:00:59;12.15;;;3.20;;
84033;SDS011;74115;55.806;37.754;2023-11-19T12:03:27;8.63;;;3.80;;
84033;SDS011;74115;55.806;37.754;2023-11-19T12:05:54;9.23;;;3.85;;
84033;SDS011;74115;55.806;37.754;2023-11-19T12:08:20;6.90;;;4.20;;
84033;SDS011;74115;55.806;37.754;2023-11-19T12:10:51;7.40;;;3.92;;
84033;SDS011;74115;55.806;37.754;2023-11-19T12:13:20;9.10;;;3.60;;
84033;SDS011;74115;55.806;37.754;2023-11-19T12:20:51;8.80;;;3.78;;
84033;SDS011;74115;55.806;37.754;2023-11-19T12:23:20;9.05;;;3.60;;
84033;SDS011;74115;55.806;37.754;2023-11-19T12:25:46;7.90;;;4.38;;
84033;SDS011;74115;55.806;37.754;2023-11-19T12:28:12;3.97;;;2.55;;
84033;SDS011;74115;55.806;37.754;2023-11-19T12:30:39;7.60;;;4.90;;
84033;SDS011;74115;55.806;37.754;2023-11-19T12:33:08;6.43;;;3.80;;
84033;SDS011;74115;55.806;37.754;2023-11-19T12:35:40;7.95;;;4.63;;
84033;SDS011;74115;55.806;37.754;2023-11-19T12:38:07;9.23;;;5.60;;
84033;SDS011;74115;55.806;37.754;2023-11-19T12:40:33;10.90;;;4.60;;
84033;SDS011;74115;55.806;37.754;2023-11-19T12:42:58;7.35;;;3.58;;
84033;SDS011;74115;55.806;37.754;2023-11-19T12:45:36;6.93;;;3.80;;
84033;SDS011;74115;55.806;37.754;2023-11-19T12:48:06;7.45;;;3.50;;
84033;SDS011;74115;55.806;37.754;2023-11-19T12:53:46;8.07;;;4.85;;
84033;SDS011;74115;55.806;37.754;2023-11-19T12:56:13;6.72;;;3.53;;
84033;SDS011;74115;55.806;37.754;2023-11-19T12:58:38;11.13;;;5.00;;
84033;SDS011;74115;55.806;37.754;2023-11-19T13:01:06;6.65;;;3.72;;
84033;SDS011;74115;55.806;37.754;2023-11-19T13:03:33;11.43;;;6.07;;
84033;SDS011;74115;55.806;37.754;2023-11-19T13:06:06;10.82;;;5.63;;
84033;SDS011;74115;55.806;37.754;2023-11-19T13:08:49;15.52;;;5.22;;
84033;SDS011;74115;55.806;37.754;2023-11-19T13:11:33;8.02;;;5.18;;
84033;SDS011;74115;55.806;37.754;2023-11-19T13:14:04;6.38;;;3.15;;
84033;SDS011;74115;55.806;37.754;2023-11-19T13:16:33;10.45;;;4.90;;
84033;SDS011;74115;55.806;37.754;2023-11-19T13:19:01;9.80;;;4.20;;
84033;SDS011;74115;55.806;37.754;2023-11-19T13:21:28;11.00;;;4.95;;
84033;SDS011;74115;55.806;37.754;2023-11-19T13:23:55;8.45;;;4.90;;
84033;SDS011;74115;55.806;37.754;2023-11-19T13:26:21;9.52;;;5.85;;
84033;SDS011;74115;55.806;37.754;2023-11-19T13:28:47;15.68;;;6.15;;
84033;SDS011;74115;55.806;37.754;2023-11-19T13:31:13;8.55;;;4.40;;
84033;SDS011;74115;55.806;37.754;2023-11-19T13:33:39;9.10;;;6.00;;
84033;SDS011;74115;55.806;37.754;2023-11-19T13:36:05;10.50;;;4.82;;
84033;SDS011;74115;55.806;37.754;2023-11-19T13:38:33;10.05;;;5.38;;
84033;SDS011;74115;55.806;37.754;2023-11-19T13:41:00;6.13;;;3.38;;
84033;SDS011;74115;55.806;37.754;2023-11-19T13:43:26;16.30;;;4.07;;
84033;SDS011;74115;55.806;37.754;2023-11-19T13:45:54;15.30;;;5.80;;
84033;SDS011;74115;55.806;37.754;2023-11-19T13:48:20;8.43;;;4.53;;
84033;SDS011;74115;55.806;37.754;2023-11-19T13:50:46;10.88;;;4.80;;
84033;SDS011;74115;55.806;37.754;2023-11-19T13:53:11;12.05;;;5.25;;
84033;SDS011;74115;55.806;37.754;2023-11-19T13:55:37;8.77;;;4.45;;
84033;SDS011;74115;55.806;37.754;2023-11-19T13:58:03;6.28;;;2.83;;
84033;SDS011;74115;55.806;37.754;2023-11-19T14:00:29;8.27;;;5.30;;
84033;SDS011;74115;55.806;37.754;2023-11-19T14:02:54;9.18;;;5.43;;
84033;SDS011;74115;55.806;37.754;2023-11-19T14:05:20;6.70;;;4.03;;
84033;SDS011;74115;55.806;37.754;2023-11-19T14:07:46;7.05;;;4.15;;
84033;SDS011;74115;55.806;37.754;2023-11-19T14:10:15;8.35;;;4.43;;
84033;SDS011;74115;55.806;37.754;2023-11-19T14:12:41;11.38;;;5.22;;
84033;SDS011;74115;55.806;37.754;2023-11-19T14:15:07;7.60;;;3.97;;
84033;SDS011;74115;55.806;37.754;2023-11-19T14:17:40;8.23;;;3.75;;
84033;SDS011;74115;55.806;37.754;2023-11-19T14:20:06;8.40;;;2.53;;
84033;SDS011;74115;55.806;37.754;2023-11-19T14:22:41;9.43;;;4.32;;
84033;SDS011;74115;55.806;37.754;2023-11-19T14:25:08;7.68;;;3.38;;
84033;SDS011;74115;55.806;37.754;2023-11-19T14:27:42;11.13;;;5.68;;
84033;SDS011;74115;55.806;37.754;2023-11-19T14:30:09;8.02;;;3.38;;
84033;SDS011;74115;55.806;37.754;2023-11-19T14:32:39;7.15;;;4.05;;
84033;SDS011;74115;55.806;37.754;2023-11-19T14:35:05;6.72;;;4.03;;
84033;SDS011;74115;55.806;37.754;2023-11-19T14:37:32;7.70;;;4.13;;
84033;SDS011;74115;55.806;37.754;2023-11-19T14:39:58;5.20;;;3.50;;
84033;SDS011;74115;55.806;37.754;2023-11-19T14:42:24;16.10;;;5.45;;
84033;SDS011;74115;55.806;37.754;2023-11-19T14:44:50;9.60;;;4.60;;
84033;SDS011;74115;55.806;37.754;2023-11-19T14:47:22;8.82;;;4.93;;
84033;SDS011;74115;55.806;37.754;2023-11-19T14:49:48;8.85;;;4.03;;
84033;SDS011;74115;55.806;37.754;2023-11-19T14:52:14;5.30;;;2.92;;
84033;SDS011;74115;55.806;37.754;2023-11-19T14:54:40;10.70;;;4.80;;
84033;SDS011;74115;55.806;37.754;2023-11-19T14:57:06;7.40;;;4.30;;